sensor_id;sensor_type;location;lat;lon;timestamp;pressure;altitude;pressure_sealevel;temperature;humidity
55347;BME280;41218;55.700;38.270;2023-05-10T00:03:28;100791.63;;;5.40;49.45
55347;BME280;41218;55.700;38.270;2023-05-10T00:08:29;100831.19;;;5.62;49.43
55347;BME280;41218;55.700;38.270;2023-05-10T00:13:30;100833.44;;;5.60;49.48
55347;BME280;41218;55.700;38.270;2023-05-10T00:18:31;100820.75;;;5.50;49.59
55347;BME280;41218;55.700;38.270;2023-05-10T00:23:32;100815.47;;;5.54;49.83
55347;BME280;41218;55.700;38.270;2023-05-10T00:28:33;100819.03;;;5.54;49.66
55347;BME280;41218;55.700;38.270;2023-05-10T00:33:33;100829.84;;;5.59;49.60
55347;BME280;41218;55.700;38.270;2023-05-10T00:38:34;100813.34;;;5.51;49.80
55347;BME280;41218;55.700;38.270;2023-05-10T00:43:35;100802.72;;;5.35;50.42
55347;BME280;41218;55.700;38.270;2023-05-10T00:48:36;100812.06;;;5.34;50.42
55347;BME280;41218;55.700;38.270;2023-05-10T00:53:36;100804.47;;;5.31;50.86
55347;BME280;41218;55.700;38.270;2023-05-10T00:58:38;100881.41;;;5.85;50.47
55347;BME280;41218;55.700;38.270;2023-05-10T01:03:39;100829.78;;;5.51;50.53
55347;BME280;41218;55.700;38.270;2023-05-10T01:08:40;100804.97;;;5.33;50.60
55347;BME280;41218;55.700;38.270;2023-05-10T01:13:42;100801.53;;;5.28;51.07
55347;BME280;41218;55.700;38.270;2023-05-10T01:18:44;100834.06;;;5.43;51.10
55347;BME280;41218;55.700;38.270;2023-05-10T01:24:07;100805.06;;;5.28;52.06
55347;BME280;41218;55.700;38.270;2023-05-10T01:29:44;100796.84;;;5.28;51.42
55347;BME280;41218;55.700;38.270;2023-05-10T01:40:45;100823.22;;;5.38;52.39
55347;BME280;41218;55.700;38.270;2023-05-10T01:46:02;100833.75;;;5.45;51.94
55347;BME280;41218;55.700;38.270;2023-05-10T01:51:06;100819.69;;;5.37;51.51
55347;BME280;41218;55.700;38.270;2023-05-10T01:56:07;100790.66;;;5.22;51.68
55347;BME280;41218;55.700;38.270;2023-05-10T02:01:09;100821.28;;;5.38;51.59
55347;BME280;41218;55.700;38.270;2023-05-10T02:06:12;100795.84;;;5.24;52.06
55347;BME280;41218;55.700;38.270;2023-05-10T02:11:15;100862.56;;;5.70;51.48
55347;BME280;41218;55.700;38.270;2023-05-10T02:16:21;100864.66;;;5.73;52.09
55347;BME280;41218;55.700;38.270;2023-05-10T02:21:24;100815.22;;;5.41;51.60
55347;BME280;41218;55.700;38.270;2023-05-10T02:26:26;100798.34;;;5.34;51.62
55347;BME280;41218;55.700;38.270;2023-05-10T02:31:27;100810.72;;;5.46;52.16
55347;BME280;41218;55.700;38.270;2023-05-10T02:36:28;100818.53;;;5.52;52.33
55347;BME280;41218;55.700;38.270;2023-05-10T02:41:32;100814.97;;;5.52;52.73
55347;BME280;41218;55.700;38.270;2023-05-10T02:46:33;100796.19;;;5.45;52.36
55347;BME280;41218;55.700;38.270;2023-05-10T02:51:37;100827.41;;;5.72;52.30
55347;BME280;41218;55.700;38.270;2023-05-10T02:56:46;100815.41;;;5.68;52.25
55347;BME280;41218;55.700;38.270;2023-05-10T03:01:47;100786.72;;;5.51;52.20
55347;BME280;41218;55.700;38.270;2023-05-10T03:06:48;100807.06;;;5.73;52.35
55347;BME280;41218;55.700;38.270;2023-05-10T03:12:03;100779.69;;;5.59;54.76
55347;BME280;41218;55.700;38.270;2023-05-10T03:22:37;100783.13;;;5.65;54.38
55347;BME280;41218;55.700;38.270;2023-05-10T03:27:41;100807.50;;;5.89;54.30
55347;BME280;41218;55.700;38.270;2023-05-10T03:32:43;100809.22;;;5.98;54.36
55347;BME280;41218;55.700;38.270;2023-05-10T03:37:43;100801.97;;;6.03;55.00
55347;BME280;41218;55.700;38.270;2023-05-10T03:42:44;100800.06;;;6.12;55.26
55347;BME280;41218;55.700;38.270;2023-05-10T03:47:44;100818.28;;;6.30;55.15
55347;BME280;41218;55.700;38.270;2023-05-10T03:52:45;100775.88;;;6.14;55.40
55347;BME280;41218;55.700;38.270;2023-05-10T03:57:46;100801.84;;;6.39;55.74
55347;BME280;41218;55.700;38.270;2023-05-10T04:02:46;100828.47;;;6.61;55.67
55347;BME280;41218;55.700;38.270;2023-05-10T04:07:47;100784.44;;;6.44;55.80
55347;BME280;41218;55.700;38.270;2023-05-10T04:12:49;100801.63;;;6.67;55.96
55347;BME280;41218;55.700;38.270;2023-05-10T04:17:50;100810.44;;;6.86;56.38
55347;BME280;41218;55.700;38.270;2023-05-10T04:22:51;100813.25;;;7.04;56.56
55347;BME280;41218;55.700;38.270;2023-05-10T04:27:52;100821.84;;;7.28;56.45
55347;BME280;41218;55.700;38.270;2023-05-10T04:32:52;100799.69;;;7.25;55.88
55347;BME280;41218;55.700;38.270;2023-05-10T04:37:55;100792.72;;;7.36;55.68
55347;BME280;41218;55.700;38.270;2023-05-10T04:42:58;100767.97;;;7.36;55.38
55347;BME280;41218;55.700;38.270;2023-05-10T04:47:59;100796.94;;;7.77;55.11
55347;BME280;41218;55.700;38.270;2023-05-10T04:53:00;100753.88;;;7.72;55.33
55347;BME280;41218;55.700;38.270;2023-05-10T04:58:00;100765.66;;;7.90;54.63
55347;BME280;41218;55.700;38.270;2023-05-10T05:03:01;100785.69;;;8.26;54.27
55347;BME280;41218;55.700;38.270;2023-05-10T05:08:02;100786.59;;;8.47;54.11
55347;BME280;41218;55.700;38.270;2023-05-10T05:13:02;100777.63;;;8.59;53.67
55347;BME280;41218;55.700;38.270;2023-05-10T05:18:03;100755.03;;;8.66;53.14
55347;BME280;41218;55.700;38.270;2023-05-10T05:23:04;100755.25;;;8.90;52.47
55347;BME280;41218;55.700;38.270;2023-05-10T05:28:04;100764.31;;;9.20;51.79
55347;BME280;41218;55.700;38.270;2023-05-10T05:33:05;100772.81;;;9.49;50.48
55347;BME280;41218;55.700;38.270;2023-05-10T05:38:06;100757.81;;;9.58;50.08
55347;BME280;41218;55.700;38.270;2023-05-10T05:43:07;100782.22;;;9.90;48.76
55347;BME280;41218;55.700;38.270;2023-05-10T05:48:07;100732.56;;;9.81;47.96
55347;BME280;41218;55.700;38.270;2023-05-10T05:53:08;100769.88;;;10.20;47.15
55347;BME280;41218;55.700;38.270;2023-05-10T05:58:09;100773.03;;;10.43;46.49
55347;BME280;41218;55.700;38.270;2023-05-10T06:03:10;100757.94;;;10.53;45.70
55347;BME280;41218;55.700;38.270;2023-05-10T06:08:10;100749.78;;;10.69;45.34
55347;BME280;41218;55.700;38.270;2023-05-10T06:13:11;100772.91;;;11.01;45.05
55347;BME280;41218;55.700;38.270;2023-05-10T06:18:12;100735.91;;;11.06;44.40
55347;BME280;41218;55.700;38.270;2023-05-10T06:23:13;100747.97;;;11.26;44.25
55347;BME280;41218;55.700;38.270;2023-05-10T06:28:13;100732.56;;;11.41;43.88
55347;BME280;41218;55.700;38.270;2023-05-10T06:33:14;100724.03;;;11.46;43.59
55347;BME280;41218;55.700;38.270;2023-05-10T06:38:16;100737.31;;;11.69;43.38
55347;BME280;41218;55.700;38.270;2023-05-10T06:43:17;100735.03;;;11.87;42.30
55347;BME280;41218;55.700;38.270;2023-05-10T06:48:17;100738.66;;;12.03;41.86
55347;BME280;41218;55.700;38.270;2023-05-10T06:53:18;100762.47;;;12.36;41.68
55347;BME280;41218;55.700;38.270;2023-05-10T06:58:18;100759.06;;;12.58;41.55
55347;BME280;41218;55.700;38.270;2023-05-10T07:03:19;100763.88;;;12.77;41.31
55347;BME280;41218;55.700;38.270;2023-05-10T07:08:20;100747.50;;;12.88;40.35
55347;BME280;41218;55.700;38.270;2023-05-10T07:13:20;100695.16;;;12.71;39.76
55347;BME280;41218;55.700;38.270;2023-05-10T07:18:21;100702.34;;;12.91;39.05
55347;BME280;41218;55.700;38.270;2023-05-10T07:23:21;100715.09;;;13.12;38.62
55347;BME280;41218;55.700;38.270;2023-05-10T07:28:22;100703.00;;;13.20;38.15
55347;BME280;41218;55.700;38.270;2023-05-10T07:33:23;100719.38;;;13.45;37.61
55347;BME280;41218;55.700;38.270;2023-05-10T07:38:23;100688.41;;;13.42;37.11
55347;BME280;41218;55.700;38.270;2023-05-10T07:43:24;100748.94;;;13.95;37.11
55347;BME280;41218;55.700;38.270;2023-05-10T07:48:25;100744.81;;;14.09;36.58
55347;BME280;41218;55.700;38.270;2023-05-10T07:53:26;100698.91;;;13.95;35.33
55347;BME280;41218;55.700;38.270;2023-05-10T07:58:27;100701.63;;;14.15;34.93
55347;BME280;41218;55.700;38.270;2023-05-10T08:03:35;100739.13;;;14.48;34.67
55347;BME280;41218;55.700;38.270;2023-05-10T08:08:36;100736.22;;;14.40;33.66
55347;BME280;41218;55.700;38.270;2023-05-10T08:13:36;100730.97;;;14.35;33.59
55347;BME280;41218;55.700;38.270;2023-05-10T08:18:37;100721.31;;;14.29;33.51
55347;BME280;41218;55.700;38.270;2023-05-10T08:23:38;100707.00;;;14.27;33.17
55347;BME280;41218;55.700;38.270;2023-05-10T08:28:39;100698.09;;;14.41;33.42
55347;BME280;41218;55.700;38.270;2023-05-10T08:33:40;100702.59;;;14.72;32.84
55347;BME280;41218;55.700;38.270;2023-05-10T08:38:40;100699.63;;;14.88;31.73
55347;BME280;41218;55.700;38.270;2023-05-10T08:43:41;100694.38;;;14.83;31.85
55347;BME280;41218;55.700;38.270;2023-05-10T08:48:47;100701.59;;;14.88;31.31
55347;BME280;41218;55.700;38.270;2023-05-10T08:53:48;100703.53;;;14.83;31.42
55347;BME280;41218;55.700;38.270;2023-05-10T08:58:50;100696.38;;;14.82;31.58
55347;BME280;41218;55.700;38.270;2023-05-10T09:03:50;100691.59;;;14.83;31.27
55347;BME280;41218;55.700;38.270;2023-05-10T09:08:51;100683.25;;;14.83;31.17
55347;BME280;41218;55.700;38.270;2023-05-10T09:13:52;100687.72;;;14.91;31.68
55347;BME280;41218;55.700;38.270;2023-05-10T09:18:53;100682.44;;;14.82;31.13
55347;BME280;41218;55.700;38.270;2023-05-10T09:23:53;100658.06;;;14.72;31.08
55347;BME280;41218;55.700;38.270;2023-05-10T09:28:57;100665.88;;;14.93;30.84
55347;BME280;41218;55.700;38.270;2023-05-10T09:33:58;100653.31;;;15.03;31.16
55347;BME280;41218;55.700;38.270;2023-05-10T09:38:58;100643.91;;;15.18;30.93
55347;BME280;41218;55.700;38.270;2023-05-10T09:43:59;100628.53;;;15.28;30.65
55347;BME280;41218;55.700;38.270;2023-05-10T09:48:59;100636.75;;;15.51;30.67
55347;BME280;41218;55.700;38.270;2023-05-10T09:54:11;100629.75;;;15.68;30.03
55347;BME280;41218;55.700;38.270;2023-05-10T09:59:12;100620.72;;;15.78;30.24
55347;BME280;41218;55.700;38.270;2023-05-10T10:04:13;100630.38;;;15.88;30.71
55347;BME280;41218;55.700;38.270;2023-05-10T10:09:13;100618.41;;;15.88;29.92
55347;BME280;41218;55.700;38.270;2023-05-10T10:14:14;100598.41;;;15.78;30.00
55347;BME280;41218;55.700;38.270;2023-05-10T10:19:14;100605.53;;;15.72;30.24
55347;BME280;41218;55.700;38.270;2023-05-10T10:24:15;100605.16;;;15.74;30.44
55347;BME280;41218;55.700;38.270;2023-05-10T10:29:25;100592.47;;;15.80;29.81
55347;BME280;41218;55.700;38.270;2023-05-10T10:34:28;100596.34;;;16.16;29.98
55347;BME280;41218;55.700;38.270;2023-05-10T10:39:28;100581.34;;;16.39;29.27
55347;BME280;41218;55.700;38.270;2023-05-10T10:54:39;100585.72;;;16.36;29.10
55347;BME280;41218;55.700;38.270;2023-05-10T10:59:42;100572.53;;;16.33;29.06
55347;BME280;41218;55.700;38.270;2023-05-10T11:04:44;100581.28;;;16.32;28.89
55347;BME280;41218;55.700;38.270;2023-05-10T11:09:49;100574.47;;;16.22;28.49
55347;BME280;41218;55.700;38.270;2023-05-10T11:14:50;100573.63;;;16.14;28.55
55347;BME280;41218;55.700;38.270;2023-05-10T11:20:17;100571.97;;;16.10;28.75
55347;BME280;41218;55.700;38.270;2023-05-10T11:25:26;100563.19;;;16.08;28.37
55347;BME280;41218;55.700;38.270;2023-05-10T11:30:28;100558.09;;;16.20;28.63
55347;BME280;41218;55.700;38.270;2023-05-10T11:35:28;100555.03;;;16.36;28.89
55347;BME280;41218;55.700;38.270;2023-05-10T11:40:29;100515.47;;;16.23;28.97
55347;BME280;41218;55.700;38.270;2023-05-10T11:45:33;100537.50;;;16.43;28.76
55347;BME280;41218;55.700;38.270;2023-05-10T11:50:34;100533.53;;;16.48;28.94
55347;BME280;41218;55.700;38.270;2023-05-10T11:55:35;100527.16;;;16.47;28.93
55347;BME280;41218;55.700;38.270;2023-05-10T12:00:35;100524.34;;;16.40;28.54
55347;BME280;41218;55.700;38.270;2023-05-10T12:05:36;100524.75;;;16.42;28.35
55347;BME280;41218;55.700;38.270;2023-05-10T12:10:37;100519.63;;;16.51;28.95
55347;BME280;41218;55.700;38.270;2023-05-10T12:15:37;100523.19;;;16.52;28.83
55347;BME280;41218;55.700;38.270;2023-05-10T12:20:38;100512.88;;;16.59;28.34
55347;BME280;41218;55.700;38.270;2023-05-10T12:25:39;100510.03;;;16.49;28.67
55347;BME280;41218;55.700;38.270;2023-05-10T12:30:40;100506.84;;;16.47;28.81
55347;BME280;41218;55.700;38.270;2023-05-10T12:35:48;100507.66;;;16.54;28.29
55347;BME280;41218;55.700;38.270;2023-05-10T12:40:49;100501.31;;;16.57;28.64
55347;BME280;41218;55.700;38.270;2023-05-10T12:45:50;100496.13;;;16.59;28.52
55347;BME280;41218;55.700;38.270;2023-05-10T12:50:50;100496.50;;;16.58;28.35
55347;BME280;41218;55.700;38.270;2023-05-10T12:55:51;100502.88;;;16.55;28.55
55347;BME280;41218;55.700;38.270;2023-05-10T13:00:52;100490.09;;;16.47;28.43
55347;BME280;41218;55.700;38.270;2023-05-10T13:05:52;100498.88;;;16.52;28.25
55347;BME280;41218;55.700;38.270;2023-05-10T13:10:53;100496.50;;;16.51;28.45
55347;BME280;41218;55.700;38.270;2023-05-10T13:15:53;100485.72;;;16.49;28.50
55347;BME280;41218;55.700;38.270;2023-05-10T13:20:54;100485.72;;;16.49;28.59
55347;BME280;41218;55.700;38.270;2023-05-10T13:25:55;100480.91;;;16.46;28.47
55347;BME280;41218;55.700;38.270;2023-05-10T13:30:56;100488.91;;;16.48;28.69
55347;BME280;41218;55.700;38.270;2023-05-10T13:35:56;100488.50;;;16.49;28.86
55347;BME280;41218;55.700;38.270;2023-05-10T13:40:57;100469.75;;;16.42;28.68
55347;BME280;41218;55.700;38.270;2023-05-10T13:45:57;100480.53;;;16.51;28.97
55347;BME280;41218;55.700;38.270;2023-05-10T13:50:58;100474.16;;;16.47;28.86
55347;BME280;41218;55.700;38.270;2023-05-10T13:55:59;100475.72;;;16.48;28.87
55347;BME280;41218;55.700;38.270;2023-05-10T14:00:59;100472.97;;;16.45;28.78
55347;BME280;41218;55.700;38.270;2023-05-10T14:06:00;100472.53;;;16.46;28.83
55347;BME280;41218;55.700;38.270;2023-05-10T14:11:00;100461.78;;;16.41;29.13
55347;BME280;41218;55.700;38.270;2023-05-10T14:16:01;100462.13;;;16.36;29.33
55347;BME280;41218;55.700;38.270;2023-05-10T14:21:02;100466.56;;;16.40;29.62
55347;BME280;41218;55.700;38.270;2023-05-10T14:26:03;100467.75;;;16.39;29.46
55347;BME280;41218;55.700;38.270;2023-05-10T14:31:04;100466.53;;;16.37;29.42
55347;BME280;41218;55.700;38.270;2023-05-10T14:36:06;100460.91;;;16.30;29.68
55347;BME280;41218;55.700;38.270;2023-05-10T14:41:06;100460.53;;;16.31;29.87
55347;BME280;41218;55.700;38.270;2023-05-10T14:46:07;100467.72;;;16.32;29.87
55347;BME280;41218;55.700;38.270;2023-05-10T14:51:08;100457.72;;;16.28;29.90
55347;BME280;41218;55.700;38.270;2023-05-10T14:56:09;100453.34;;;16.27;29.92
55347;BME280;41218;55.700;38.270;2023-05-10T15:01:09;100455.34;;;16.26;29.98
55347;BME280;41218;55.700;38.270;2023-05-10T15:06:10;100447.34;;;16.21;30.05
55347;BME280;41218;55.700;38.270;2023-05-10T15:11:10;100450.47;;;16.16;30.26
55347;BME280;41218;55.700;38.270;2023-05-10T15:16:11;100435.31;;;16.06;30.23
55347;BME280;41218;55.700;38.270;2023-05-10T15:21:12;100437.28;;;16.02;30.45
55347;BME280;41218;55.700;38.270;2023-05-10T15:26:12;100438.53;;;16.08;30.78
55347;BME280;41218;55.700;38.270;2023-05-10T15:31:13;100447.66;;;16.05;30.96
55347;BME280;41218;55.700;38.270;2023-05-10T15:36:13;100448.03;;;16.03;31.13
55347;BME280;41218;55.700;38.270;2023-05-10T15:41:14;100440.84;;;15.99;31.81
55347;BME280;41218;55.700;38.270;2023-05-10T15:46:14;100438.03;;;15.95;32.66
55347;BME280;41218;55.700;38.270;2023-05-10T15:51:15;100430.84;;;15.91;33.21
55347;BME280;41218;55.700;38.270;2023-05-10T15:56:15;100430.41;;;15.85;33.76
55347;BME280;41218;55.700;38.270;2023-05-10T16:01:16;100403.94;;;15.61;34.29
55347;BME280;41218;55.700;38.270;2023-05-10T16:06:16;100435.50;;;15.72;34.77
55347;BME280;41218;55.700;38.270;2023-05-10T16:11:17;100433.06;;;15.67;35.25
55347;BME280;41218;55.700;38.270;2023-05-10T16:16:17;100423.84;;;15.56;35.71
55347;BME280;41218;55.700;38.270;2023-05-10T16:21:18;100435.41;;;15.58;36.16
55347;BME280;41218;55.700;38.270;2023-05-10T16:26:18;100428.16;;;15.50;36.51
55347;BME280;41218;55.700;38.270;2023-05-10T16:31:19;100408.09;;;15.26;36.88
55347;BME280;41218;55.700;38.270;2023-05-10T16:36:19;100431.19;;;15.30;37.26
55347;BME280;41218;55.700;38.270;2023-05-10T16:41:20;100436.72;;;15.23;37.44
55347;BME280;41218;55.700;38.270;2023-05-10T16:46:20;100439.44;;;15.16;38.08
55347;BME280;41218;55.700;38.270;2023-05-10T16:51:21;100432.97;;;15.05;37.90
55347;BME280;41218;55.700;38.270;2023-05-10T16:56:21;100435.66;;;14.94;38.42
55347;BME280;41218;55.700;38.270;2023-05-10T17:01:23;100437.69;;;14.97;38.09
55347;BME280;41218;55.700;38.270;2023-05-10T17:06:23;100434.25;;;14.73;38.71
55347;BME280;41218;55.700;38.270;2023-05-10T17:11:24;100434.19;;;14.66;38.85
55347;BME280;41218;55.700;38.270;2023-05-10T17:16:24;100444.84;;;14.60;39.08
55347;BME280;41218;55.700;38.270;2023-05-10T17:21:25;100452.66;;;14.51;39.89
55347;BME280;41218;55.700;38.270;2023-05-10T17:26:26;100454.13;;;14.41;39.76
55347;BME280;41218;55.700;38.270;2023-05-10T17:31:28;100444.03;;;14.26;39.91
55347;BME280;41218;55.700;38.270;2023-05-10T17:36:29;100447.09;;;14.17;40.18
55347;BME280;41218;55.700;38.270;2023-05-10T17:41:30;100462.94;;;14.13;40.43
55347;BME280;41218;55.700;38.270;2023-05-10T17:46:30;100468.00;;;14.08;40.71
55347;BME280;41218;55.700;38.270;2023-05-10T17:51:32;100467.03;;;13.96;41.06
55347;BME280;41218;55.700;38.270;2023-05-10T17:56:32;100468.91;;;13.89;40.99
55347;BME280;41218;55.700;38.270;2023-05-10T18:01:33;100471.97;;;13.80;41.19
55347;BME280;41218;55.700;38.270;2023-05-10T18:06:37;100464.19;;;13.62;41.62
55347;BME280;41218;55.700;38.270;2023-05-10T18:11:37;100478.44;;;13.61;41.63
55347;BME280;41218;55.700;38.270;2023-05-10T18:16:38;100475.09;;;13.52;41.39
55347;BME280;41218;55.700;38.270;2023-05-10T18:21:39;100476.97;;;13.44;42.04
55347;BME280;41218;55.700;38.270;2023-05-10T18:26:39;100475.25;;;13.36;42.01
55347;BME280;41218;55.700;38.270;2023-05-10T18:31:40;100476.25;;;13.28;42.22
55347;BME280;41218;55.700;38.270;2023-05-10T18:36:40;100476.94;;;13.21;42.23
55347;BME280;41218;55.700;38.270;2023-05-10T18:41:43;100474.34;;;13.09;42.72
55347;BME280;41218;55.700;38.270;2023-05-10T18:46:44;100474.59;;;13.00;42.93
55347;BME280;41218;55.700;38.270;2023-05-10T18:51:45;100479.72;;;12.98;42.92
55347;BME280;41218;55.700;38.270;2023-05-10T18:56:47;100476.72;;;12.87;43.17
55347;BME280;41218;55.700;38.270;2023-05-10T19:01:48;100466.19;;;12.73;43.30
55347;BME280;41218;55.700;38.270;2023-05-10T19:06:48;100474.94;;;12.75;43.38
55347;BME280;41218;55.700;38.270;2023-05-10T19:11:50;100469.53;;;12.63;43.83
55347;BME280;41218;55.700;38.270;2023-05-10T19:16:50;100485.16;;;12.71;43.68
55347;BME280;41218;55.700;38.270;2023-05-10T19:21:51;100482.91;;;12.57;43.73
55347;BME280;41218;55.700;38.270;2023-05-10T19:26:51;100491.00;;;12.47;44.09
55347;BME280;41218;55.700;38.270;2023-05-10T19:31:52;100477.28;;;12.34;44.28
55347;BME280;41218;55.700;38.270;2023-05-10T19:36:53;100471.50;;;12.23;44.61
55347;BME280;41218;55.700;38.270;2023-05-10T19:41:53;100481.50;;;12.28;44.61
55347;BME280;41218;55.700;38.270;2023-05-10T19:46:54;100478.59;;;12.21;44.92
55347;BME280;41218;55.700;38.270;2023-05-10T19:51:54;100479.66;;;12.16;45.25
55347;BME280;41218;55.700;38.270;2023-05-10T19:56:55;100486.22;;;12.08;45.25
55347;BME280;41218;55.700;38.270;2023-05-10T20:01:55;100488.94;;;12.05;45.49
55347;BME280;41218;55.700;38.270;2023-05-10T20:06:56;100490.72;;;11.97;45.44
55347;BME280;41218;55.700;38.270;2023-05-10T20:11:56;100483.06;;;11.90;45.79
55347;BME280;41218;55.700;38.270;2023-05-10T20:16:57;100480.66;;;11.89;45.74
55347;BME280;41218;55.700;38.270;2023-05-10T20:21:57;100480.66;;;11.89;45.79
55347;BME280;41218;55.700;38.270;2023-05-10T20:26:58;100479.75;;;11.85;46.05
55347;BME280;41218;55.700;38.270;2023-05-10T20:31:59;100479.00;;;11.88;45.93
55347;BME280;41218;55.700;38.270;2023-05-10T20:37:00;100473.44;;;11.68;46.47
55347;BME280;41218;55.700;38.270;2023-05-10T20:42:01;100478.88;;;11.65;46.69
55347;BME280;41218;55.700;38.270;2023-05-10T20:47:01;100473.97;;;11.58;46.77
55347;BME280;41218;55.700;38.270;2023-05-10T20:52:03;100469.50;;;11.53;46.94
55347;BME280;41218;55.700;38.270;2023-05-10T20:57:04;100475.75;;;11.50;47.26
55347;BME280;41218;55.700;38.270;2023-05-10T21:02:04;100468.53;;;11.46;47.51
55347;BME280;41218;55.700;38.270;2023-05-10T21:07:05;100468.34;;;11.38;47.63
55347;BME280;41218;55.700;38.270;2023-05-10T21:12:07;100472.28;;;11.37;47.72
55347;BME280;41218;55.700;38.270;2023-05-10T21:17:07;100475.31;;;11.32;47.58
55347;BME280;41218;55.700;38.270;2023-05-10T21:22:08;100473.19;;;11.26;47.57
55347;BME280;41218;55.700;38.270;2023-05-10T21:27:08;100475.50;;;11.23;47.82
55347;BME280;41218;55.700;38.270;2023-05-10T21:32:09;100464.25;;;11.16;47.84
55347;BME280;41218;55.700;38.270;2023-05-10T21:37:10;100474.50;;;11.16;47.87
55347;BME280;41218;55.700;38.270;2023-05-10T21:42:10;100472.28;;;11.06;47.87
55347;BME280;41218;55.700;38.270;2023-05-10T21:47:11;100448.16;;;10.90;48.17
55347;BME280;41218;55.700;38.270;2023-05-10T21:52:11;100470.13;;;10.99;47.88
55347;BME280;41218;55.700;38.270;2023-05-10T21:57:12;100469.25;;;10.95;47.74
55347;BME280;41218;55.700;38.270;2023-05-10T22:02:12;100470.63;;;10.89;48.15
55347;BME280;41218;55.700;38.270;2023-05-10T22:07:13;100470.81;;;10.80;48.41
55347;BME280;41218;55.700;38.270;2023-05-10T22:12:15;100452.22;;;10.65;48.45
55347;BME280;41218;55.700;38.270;2023-05-10T22:17:16;100467.53;;;10.62;48.59
55347;BME280;41218;55.700;38.270;2023-05-10T22:22:17;100462.63;;;10.55;48.28
55347;BME280;41218;55.700;38.270;2023-05-10T22:27:17;100467.50;;;10.46;48.47
55347;BME280;41218;55.700;38.270;2023-05-10T22:32:18;100460.97;;;10.38;48.41
55347;BME280;41218;55.700;38.270;2023-05-10T22:37:18;100466.06;;;10.36;48.39
55347;BME280;41218;55.700;38.270;2023-05-10T22:42:19;100455.09;;;10.28;48.60
55347;BME280;41218;55.700;38.270;2023-05-10T22:47:19;100455.09;;;10.28;48.62
55347;BME280;41218;55.700;38.270;2023-05-10T22:52:20;100460.09;;;10.22;48.64
55347;BME280;41218;55.700;38.270;2023-05-10T22:57:21;100454.78;;;10.17;48.40
55347;BME280;41218;55.700;38.270;2023-05-10T23:02:21;100461.50;;;10.16;48.42
55347;BME280;41218;55.700;38.270;2023-05-10T23:07:22;100457.00;;;10.11;48.56
55347;BME280;41218;55.700;38.270;2023-05-10T23:12:23;100451.28;;;10.04;48.12
55347;BME280;41218;55.700;38.270;2023-05-10T23:17:24;100456.78;;;10.04;48.54
55347;BME280;41218;55.700;38.270;2023-05-10T23:22:24;100460.94;;;9.98;48.54
55347;BME280;41218;55.700;38.270;2023-05-10T23:27:28;100469.22;;;9.98;48.90
55347;BME280;41218;55.700;38.270;2023-05-10T23:32:29;100460.25;;;9.89;48.63
55347;BME280;41218;55.700;38.270;2023-05-10T23:37:30;100458.22;;;9.86;48.86
55347;BME280;41218;55.700;38.270;2023-05-10T23:42:31;100468.44;;;9.85;48.82
55347;BME280;41218;55.700;38.270;2023-05-10T23:47:31;100463.16;;;9.80;49.06
55347;BME280;41218;55.700;38.270;2023-05-10T23:52:32;100461.66;;;9.70;49.18
55347;BME280;41218;55.700;38.270;2023-05-10T23:57:32;100466.72;;;9.68;49.41
